Time;durP1;ratioP1;P1;durP2;ratioP2;P2;SDS_P1;SDS_P2;PMS_P1;PMS_P2;Temp;Humidity;BMP_temperature;BMP_pressure;BME280_temperature;BME280_humidity;BME280_pressure;Samples;Min_cycle;Max_cycle;Signal;HPM_P1;HPM_P2
2023/09/30 00:01:27;;;;;;;22.40;16.80;;;;;;;15.88;62.51;101144.60;105803;1257;60457;-53
2023/09/30 00:03:54;;;;;;;23.80;17.70;;;;;;;15.86;62.50;101144.60;105766;1257;65543;-54
2023/09/30 00:06:22;;;;;;;24.60;17.20;;;;;;;15.85;62.49;101141.02;106054;1254;63252;-52
2023/09/30 00:08:48;;;;;;;22.70;14.80;;;;;;;15.85;62.44;101140.98;105306;1256;63832;-52
2023/09/30 00:11:16;;;;;;;22.40;15.80;;;;;;;15.85;62.33;101139.40;105371;1253;60591;-53
2023/09/30 00:13:43;;;;;;;18.40;15.20;;;;;;;15.84;62.47;101140.64;105480;1253;60463;-53
2023/09/30 00:16:10;;;;;;;21.20;16.80;;;;;;;15.80;62.55;101140.43;105401;1256;64897;-52
2023/09/30 00:18:37;;;;;;;26.30;18.60;;;;;;;15.75;62.50;101137.27;105452;1257;61979;-54
2023/09/30 00:21:05;;;;;;;24.00;17.20;;;;;;;15.70;62.45;101136.98;105460;1251;62801;-53
2023/09/30 00:23:32;;;;;;;21.90;16.50;;;;;;;15.66;62.50;101137.23;105689;1253;60590;-53
2023/09/30 00:25:59;;;;;;;21.20;15.30;;;;;;;15.66;62.54;101134.23;105330;1256;60361;-52
2023/09/30 00:28:26;;;;;;;20.30;15.10;;;;;;;15.68;62.59;101131.90;105759;1255;65544;-53
2023/09/30 00:30:53;;;;;;;20.30;15.40;;;;;;;15.69;62.47;101127.93;105370;1251;61551;-53
2023/09/30 00:33:21;;;;;;;27.50;17.60;;;;;;;15.67;62.53;101127.60;105369;1258;64076;-53
2023/09/30 00:35:47;;;;;;;25.20;17.40;;;;;;;15.64;62.51;101129.46;105355;1257;60906;-53
2023/09/30 00:38:14;;;;;;;28.30;19.00;;;;;;;15.59;62.37;101132.66;105985;1256;60541;-53
2023/09/30 00:40:48;;;;;;;21.50;16.20;;;;;;;15.54;62.38;101131.57;106066;1251;65217;-53
2023/09/30 00:43:19;;;;;;;22.00;17.00;;;;;;;15.51;62.42;101131.10;106140;1257;61498;-53
2023/09/30 00:45:48;;;;;;;19.30;14.90;;;;;;;15.50;62.42;101127.17;106885;1256;63802;-54
2023/09/30 00:48:15;;;;;;;22.40;15.10;;;;;;;15.50;62.38;101124.29;106131;1257;60731;-53
2023/09/30 00:50:43;;;;;;;18.90;15.20;;;;;;;15.55;62.52;101127.61;105389;1254;60466;-60
2023/09/30 00:53:10;;;;;;;24.20;15.80;;;;;;;15.59;62.61;101126.52;106773;1254;65056;-61
2023/09/30 00:55:37;;;;;;;20.00;15.30;;;;;;;15.58;62.59;101127.77;105480;1256;61757;-60
2023/09/30 00:58:04;;;;;;;15.80;14.00;;;;;;;15.55;62.66;101126.35;105434;1257;64049;-60
2023/09/30 01:00:31;;;;;;;21.80;15.00;;;;;;;15.49;62.71;101127.03;105688;1251;60410;-61
2023/09/30 01:03:03;;;;;;;23.20;15.80;;;;;;;15.41;62.63;101125.23;105805;1251;60555;-61
2023/09/30 01:05:31;;;;;;;19.40;15.00;;;;;;;15.34;62.87;101125.02;105589;1256;65139;-61
2023/09/30 01:07:58;;;;;;;20.50;13.90;;;;;;;15.32;63.00;101124.48;105950;1257;61760;-62
2023/09/30 01:10:25;;;;;;;19.40;14.10;;;;;;;15.31;62.98;101126.69;105375;1257;64318;-61
2023/09/30 01:12:52;;;;;;;18.70;14.00;;;;;;;15.29;62.94;101127.19;105292;1257;60421;-59
2023/09/30 01:15:19;;;;;;;17.20;13.40;;;;;;;15.27;62.95;101124.24;106015;1251;60554;-62
2023/09/30 01:17:46;;;;;;;20.20;14.90;;;;;;;15.26;63.01;101121.65;108510;1254;65475;-62
2023/09/30 01:20:22;;;;;;;21.70;14.00;;;;;;;15.26;63.16;101116.66;105455;1254;61665;-61
2023/09/30 01:22:49;;;;;;;19.60;13.90;;;;;;;15.23;63.01;101113.72;105292;1257;64038;-60
2023/09/30 01:25:16;;;;;;;19.20;13.90;;;;;;;15.23;62.94;101110.90;107774;1251;60565;-59
2023/09/30 01:27:42;;;;;;;16.50;14.70;;;;;;;15.25;62.93;101111.45;105381;1257;60554;-58
2023/09/30 01:30:11;;;;;;;20.00;15.30;;;;;;;15.26;62.96;101113.84;106233;1256;65012;-60
2023/09/30 01:32:40;;;;;;;20.20;14.30;;;;;;;15.25;62.85;101110.60;105603;1257;60440;-61
2023/09/30 01:35:07;;;;;;;18.40;14.90;;;;;;;15.22;62.83;101112.42;105468;1257;64033;-59
2023/09/30 01:37:34;;;;;;;21.80;16.20;;;;;;;15.18;63.05;101108.54;105797;1255;60456;-61
2023/09/30 01:40:08;;;;;;;20.60;14.70;;;;;;;15.15;63.10;101111.66;105669;1255;60444;-58
2023/09/30 01:42:34;;;;;;;19.20;14.80;;;;;;;15.16;63.04;101112.64;105718;1256;63964;-58
2023/09/30 01:45:02;;;;;;;18.20;14.00;;;;;;;15.16;63.03;101110.33;105567;1251;61706;-59
2023/09/30 01:47:29;;;;;;;20.60;15.90;;;;;;;15.15;63.11;101111.48;105813;1256;71345;-58
2023/09/30 01:49:56;;;;;;;21.10;14.70;;;;;;;15.11;63.20;101112.15;105487;1254;60444;-58
2023/09/30 01:52:22;;;;;;;22.70;15.90;;;;;;;15.06;63.15;101112.58;105582;1254;60613;-59
2023/09/30 01:54:49;;;;;;;21.20;16.30;;;;;;;15.00;63.29;101112.48;106791;1252;65741;-58
2023/09/30 01:57:16;;;;;;;24.90;17.70;;;;;;;14.93;63.43;101112.50;106015;1256;61659;-60
2023/09/30 01:59:43;;;;;;;20.30;15.40;;;;;;;14.89;63.46;101113.20;105454;1257;63981;-61
2023/09/30 02:02:10;;;;;;;19.10;14.70;;;;;;;14.89;63.33;101113.02;105403;1254;60428;-59
2023/09/30 02:04:37;;;;;;;19.40;15.50;;;;;;;14.90;63.38;101114.70;105509;1251;60517;-60
2023/09/30 02:07:03;;;;;;;20.60;15.30;;;;;;;14.88;63.39;101112.73;105232;1254;60458;-59
2023/09/30 02:09:30;;;;;;;17.40;15.20;;;;;;;14.84;63.39;101108.14;105721;1256;61461;-61
2023/09/30 02:11:59;;;;;;;18.60;15.10;;;;;;;14.78;63.15;101108.98;105718;1255;63948;-60
2023/09/30 02:14:26;;;;;;;20.50;16.00;;;;;;;14.72;63.19;101106.89;105540;1255;61235;-59
2023/09/30 02:16:52;;;;;;;19.90;15.50;;;;;;;14.65;63.18;101102.36;105380;1257;60331;-58
2023/09/30 02:19:19;;;;;;;20.50;15.40;;;;;;;14.62;63.14;101102.13;105928;1256;74097;-58
2023/09/30 02:21:47;;;;;;;22.60;17.30;;;;;;;14.61;63.06;101102.17;106048;1251;61608;-59
2023/09/30 02:24:15;;;;;;;20.70;17.10;;;;;;;14.56;63.18;101102.21;105391;1256;64086;-58
2023/09/30 02:26:42;;;;;;;21.50;16.30;;;;;;;14.52;63.27;101104.00;105253;1255;60480;-57
2023/09/30 02:29:08;;;;;;;23.10;15.10;;;;;;;14.48;63.30;101105.86;106100;1251;60604;-58
2023/09/30 02:31:36;;;;;;;22.10;16.40;;;;;;;14.46;63.54;101102.67;105467;1257;65324;-59
2023/09/30 02:34:03;;;;;;;22.50;16.80;;;;;;;14.46;63.54;101106.60;105536;1251;61591;-59
2023/09/30 02:36:30;;;;;;;23.30;15.40;;;;;;;14.47;63.55;101099.11;105573;1256;63916;-65
2023/09/30 02:38:57;;;;;;;21.50;15.60;;;;;;;14.49;63.59;101098.05;105329;1252;60467;-58
2023/09/30 02:41:25;;;;;;;21.30;15.90;;;;;;;14.52;63.61;101095.66;105641;1254;60453;-58
2023/09/30 02:43:51;;;;;;;21.20;16.40;;;;;;;14.51;63.74;101097.85;105318;1257;63754;-60
2023/09/30 02:46:18;;;;;;;20.10;16.60;;;;;;;14.49;63.79;101095.90;105326;1251;62628;-56
2023/09/30 02:48:45;;;;;;;21.80;16.90;;;;;;;14.48;63.82;101093.11;105374;1257;62793;-62
2023/09/30 02:51:12;;;;;;;23.40;16.80;;;;;;;14.47;63.93;101089.02;105307;1257;60408;-62
2023/09/30 02:53:39;;;;;;;23.30;17.00;;;;;;;14.45;64.00;101088.82;105491;1256;60982;-62
2023/09/30 02:56:06;;;;;;;27.60;16.80;;;;;;;14.46;63.82;101091.20;105368;1254;64990;-62
2023/09/30 02:58:33;;;;;;;22.80;16.30;;;;;;;14.48;63.60;101087.89;105543;1257;61885;-62
2023/09/30 03:01:00;;;;;;;21.10;16.70;;;;;;;14.51;63.77;101087.52;105538;1255;73091;-62
2023/09/30 03:03:27;;;;;;;21.60;16.40;;;;;;;14.53;63.82;101087.16;105341;1251;60443;-61
2023/09/30 03:05:54;;;;;;;20.30;15.80;;;;;;;14.52;63.91;101088.23;106041;1254;60463;-65
2023/09/30 03:08:22;;;;;;;20.20;15.90;;;;;;;14.52;63.91;101088.11;106078;1257;65014;-65
2023/09/30 03:10:48;;;;;;;21.50;17.20;;;;;;;14.50;63.84;101088.73;106646;1251;61460;-65
2023/09/30 03:13:15;;;;;;;24.50;18.10;;;;;;;14.48;63.84;101087.02;106060;1256;63759;-65
2023/09/30 03:15:42;;;;;;;21.10;16.70;;;;;;;14.47;63.86;101087.27;105335;1251;60472;-67
2023/09/30 03:18:10;;;;;;;22.60;16.20;;;;;;;14.47;63.64;101086.71;105494;1251;60559;-65
2023/09/30 03:20:40;;;;;;;23.20;16.50;;;;;;;14.46;63.48;101086.59;105392;1254;65363;-66
2023/09/30 03:23:08;;;;;;;20.20;16.20;;;;;;;14.43;63.55;101087.10;105485;1256;60453;-65
2023/09/30 03:25:35;;;;;;;23.60;17.00;;;;;;;14.37;63.66;101087.58;106361;1251;63902;-65
2023/09/30 03:28:02;;;;;;;24.50;18.10;;;;;;;14.33;63.78;101089.84;106454;1254;60380;-66
2023/09/30 03:30:29;;;;;;;25.80;16.60;;;;;;;14.27;63.76;101085.95;105441;1251;60459;-66
2023/09/30 03:32:57;;;;;;;22.70;16.60;;;;;;;14.21;63.77;101084.19;105532;1254;65102;-60
2023/09/30 03:35:24;;;;;;;21.10;15.80;;;;;;;14.19;63.85;101085.55;105484;1257;61755;-60
2023/09/30 03:37:51;;;;;;;21.50;16.00;;;;;;;14.18;63.69;101083.94;105947;1256;63719;-59
2023/09/30 03:40:27;;;;;;;23.70;16.50;;;;;;;14.13;63.66;101079.73;105292;1256;60541;-59
2023/09/30 03:42:54;;;;;;;22.00;16.90;;;;;;;14.09;63.71;101080.38;105270;1251;60535;-59
2023/09/30 03:45:21;;;;;;;21.70;17.00;;;;;;;14.05;63.79;101076.30;106739;1252;65503;-59
2023/09/30 03:47:48;;;;;;;24.10;17.90;;;;;;;14.03;63.80;101074.95;106060;1251;61761;-59
2023/09/30 03:50:16;;;;;;;20.40;16.10;;;;;;;14.01;63.71;101075.07;105924;1251;63896;-59
2023/09/30 03:52:44;;;;;;;20.60;15.00;;;;;;;14.02;63.58;101075.50;106095;1251;60462;-61
2023/09/30 03:55:12;;;;;;;23.60;15.50;;;;;;;14.07;63.52;101074.40;106136;1251;60441;-62
2023/09/30 03:57:39;;;;;;;21.30;15.30;;;;;;;14.10;63.44;101073.14;105376;1256;65158;-59
2023/09/30 04:00:06;;;;;;;21.80;17.00;;;;;;;14.12;63.43;101079.27;105315;1256;60405;-61
2023/09/30 04:02:39;;;;;;;22.90;17.20;;;;;;;14.12;63.53;101080.98;107942;1253;64019;-57
2023/09/30 04:05:07;;;;;;;25.90;18.20;;;;;;;14.12;63.43;101079.58;108925;1251;60653;-58
2023/09/30 04:07:36;;;;;;;22.40;17.20;;;;;;;14.12;63.37;101078.02;106445;1256;60408;-59
2023/09/30 04:10:04;;;;;;;22.10;17.00;;;;;;;14.11;63.30;101078.13;105652;1254;65343;-56
2023/09/30 04:12:32;;;;;;;22.40;15.80;;;;;;;14.12;63.11;101076.63;105654;1251;60517;-58
2023/09/30 04:15:00;;;;;;;22.20;16.10;;;;;;;14.12;63.09;101077.85;105196;1254;63748;-60
2023/09/30 04:17:27;;;;;;;27.10;16.90;;;;;;;14.15;63.24;101080.80;107546;1253;60458;-60
2023/09/30 04:19:53;;;;;;;21.70;16.00;;;;;;;14.14;63.12;101080.50;106051;1256;60451;-59
2023/09/30 04:22:21;;;;;;;21.60;15.30;;;;;;;14.10;63.42;101082.81;105379;1251;64994;-60
2023/09/30 04:24:50;;;;;;;21.20;16.10;;;;;;;14.06;63.36;101082.21;105923;1251;61715;-60
2023/09/30 04:27:21;;;;;;;21.90;17.50;;;;;;;14.04;63.40;101078.34;108480;1251;64068;-56
2023/09/30 04:29:49;;;;;;;24.60;17.30;;;;;;;14.04;63.36;101078.56;105384;1256;60463;-58
2023/09/30 04:32:15;;;;;;;19.90;16.70;;;;;;;14.04;63.40;101081.05;106814;1253;60575;-57
2023/09/30 04:34:43;;;;;;;24.10;16.60;;;;;;;14.09;63.32;101083.42;105453;1255;65223;-56
2023/09/30 04:37:13;;;;;;;22.80;16.90;;;;;;;14.17;63.19;101083.09;105396;1257;61670;-57
2023/09/30 04:39:40;;;;;;;24.40;16.70;;;;;;;14.21;63.01;101079.25;105535;1251;73225;-58
2023/09/30 04:42:10;;;;;;;23.40;17.50;;;;;;;14.20;62.88;101076.12;106305;1254;60447;-56
2023/09/30 04:44:38;;;;;;;23.00;17.60;;;;;;;14.18;62.94;101080.73;105516;1256;60462;-56
2023/09/30 04:47:04;;;;;;;24.40;19.10;;;;;;;14.17;63.03;101077.66;105344;1256;65207;-56
2023/09/30 04:49:32;;;;;;;21.30;16.30;;;;;;;14.17;63.15;101078.52;105238;1257;61490;-60
2023/09/30 04:51:59;;;;;;;25.00;17.40;;;;;;;14.16;63.27;101079.45;105701;1254;64003;-60
2023/09/30 04:54:26;;;;;;;23.30;17.20;;;;;;;14.19;63.47;101078.71;105782;1254;60555;-60
2023/09/30 04:56:54;;;;;;;21.70;15.70;;;;;;;14.26;63.74;101081.44;106038;1251;60408;-60
2023/09/30 04:59:24;;;;;;;22.90;16.60;;;;;;;14.33;63.81;101078.55;106856;1251;65037;-55
2023/09/30 05:01:51;;;;;;;23.60;17.60;;;;;;;14.39;63.85;101079.50;105784;1254;61735;-58
2023/09/30 05:04:20;;;;;;;21.50;17.50;;;;;;;14.40;63.96;101077.41;105262;1257;64069;-60
2023/09/30 05:06:46;;;;;;;23.70;17.80;;;;;;;14.40;64.06;101081.57;106711;1251;60430;-66
2023/09/30 05:09:13;;;;;;;22.00;17.70;;;;;;;14.41;64.08;101081.80;106779;1251;60457;-66
2023/09/30 05:11:40;;;;;;;22.10;17.20;;;;;;;14.41;64.08;101077.87;105253;1256;65181;-72
2023/09/30 05:14:08;;;;;;;23.30;18.30;;;;;;;14.47;63.87;101080.37;105366;1251;61873;-57
2023/09/30 05:16:35;;;;;;;25.00;18.40;;;;;;;14.56;63.79;101077.13;106305;1256;73155;-64
2023/09/30 05:19:02;;;;;;;25.10;18.60;;;;;;;14.63;63.62;101074.95;105439;1254;60504;-66
2023/09/30 05:21:36;;;;;;;25.70;19.00;;;;;;;14.69;63.77;101075.20;105278;1255;60427;-65
2023/09/30 05:24:05;;;;;;;26.90;19.60;;;;;;;14.73;63.70;101076.77;105699;1255;65127;-69
2023/09/30 05:26:32;;;;;;;22.10;18.40;;;;;;;14.76;63.71;101076.02;105575;1256;61879;-66
2023/09/30 05:28:59;;;;;;;25.40;19.30;;;;;;;14.79;63.87;101074.52;105668;1251;63932;-67
2023/09/30 05:31:28;;;;;;;28.60;19.10;;;;;;;14.83;64.00;101069.14;105301;1253;60504;-65
2023/09/30 05:33:57;;;;;;;27.60;18.30;;;;;;;14.93;63.97;101073.31;105596;1251;60437;-66
2023/09/30 05:36:24;;;;;;;26.80;17.80;;;;;;;15.03;63.86;101074.87;105581;1255;65249;-66
2023/09/30 05:38:51;;;;;;;25.50;18.10;;;;;;;15.14;63.67;101076.77;105693;1254;61801;-66
2023/09/30 05:41:20;;;;;;;25.20;19.10;;;;;;;15.23;63.62;101076.63;105828;1255;73034;-58
2023/09/30 05:43:47;;;;;;;24.70;19.10;;;;;;;15.29;63.58;101073.48;106044;1251;60444;-58
2023/09/30 05:46:15;;;;;;;25.10;18.70;;;;;;;15.36;63.66;101071.78;105241;1252;60571;-56
2023/09/30 05:48:42;;;;;;;26.70;19.60;;;;;;;15.46;63.66;101071.98;106073;1256;65863;-56
2023/09/30 05:51:08;;;;;;;30.20;20.70;;;;;;;15.56;63.60;101069.27;105240;1251;61661;-57
2023/09/30 05:53:36;;;;;;;27.80;19.60;;;;;;;15.70;63.23;101071.24;105338;1256;62675;-58
2023/09/30 05:56:03;;;;;;;31.40;20.30;;;;;;;15.82;62.75;101075.42;105258;1254;60441;-58
2023/09/30 05:58:31;;;;;;;25.00;20.00;;;;;;;15.91;62.40;101071.13;105549;1252;60448;-66
2023/09/30 06:01:00;;;;;;;29.80;19.30;;;;;;;15.98;62.47;101070.13;105411;1253;65071;-61
2023/09/30 06:03:29;;;;;;;26.70;20.60;;;;;;;16.06;62.57;101070.41;105744;1256;61680;-63
2023/09/30 06:05:56;;;;;;;26.30;20.60;;;;;;;16.14;62.68;101069.87;105268;1257;62612;-64
2023/09/30 06:08:23;;;;;;;24.90;19.90;;;;;;;16.22;62.81;101073.17;109142;1251;58555;-63
2023/09/30 06:10:49;;;;;;;29.30;20.50;;;;;;;16.36;62.85;101073.45;107754;1255;58720;-63
2023/09/30 06:13:16;;;;;;;26.00;18.30;;;;;;;16.54;62.83;101073.61;105563;1255;65774;-63
2023/09/30 06:15:46;;;;;;;24.80;19.40;;;;;;;16.70;63.20;101071.39;106228;1251;61719;-66
2023/09/30 06:18:14;;;;;;;27.80;17.90;;;;;;;16.86;63.55;101070.91;107495;1251;64029;-65
2023/09/30 06:20:42;;;;;;;28.70;20.70;;;;;;;17.01;63.79;101075.37;105304;1254;60534;-67
2023/09/30 06:23:11;;;;;;;27.70;19.80;;;;;;;17.16;63.56;101077.30;106124;1253;60325;-67
2023/09/30 06:25:39;;;;;;;25.80;21.20;;;;;;;17.28;63.27;101076.14;105346;1256;64981;-67
2023/09/30 06:28:07;;;;;;;26.40;19.60;;;;;;;17.37;63.09;101075.23;105128;1251;61762;-66
2023/09/30 06:30:34;;;;;;;26.80;19.70;;;;;;;17.50;62.76;101074.50;105276;1256;73542;-67
2023/09/30 06:33:04;;;;;;;28.40;19.70;;;;;;;17.60;62.64;101073.86;109260;1252;58887;-64
2023/09/30 06:35:37;;;;;;;25.80;19.50;;;;;;;17.72;62.55;101073.45;109271;1251;58380;-64
2023/09/30 06:38:05;;;;;;;26.40;20.50;;;;;;;17.84;62.49;101073.13;109277;1251;63685;-64
2023/09/30 06:40:31;;;;;;;24.90;20.30;;;;;;;17.94;62.38;101072.16;109275;1250;61471;-65
2023/09/30 06:42:58;;;;;;;24.70;19.70;;;;;;;18.05;62.06;101068.75;109209;1252;62608;-70
2023/09/30 06:45:26;;;;;;;24.10;19.10;;;;;;;18.16;61.26;101068.64;108170;1253;60426;-64
2023/09/30 06:47:54;;;;;;;27.20;18.90;;;;;;;18.24;60.91;101068.98;105714;1251;60575;-68
2023/09/30 06:50:21;;;;;;;23.50;18.50;;;;;;;18.36;60.67;101069.46;105701;1251;65094;-61
2023/09/30 06:52:49;;;;;;;24.10;17.80;;;;;;;18.50;60.32;101064.69;105704;1253;61929;-61
2023/09/30 06:55:18;;;;;;;23.90;16.70;;;;;;;18.59;59.70;101064.81;105075;1251;63856;-56
2023/09/30 06:57:45;;;;;;;21.50;17.40;;;;;;;18.68;59.33;101061.41;105038;1251;60593;-56
2023/09/30 07:00:13;;;;;;;22.10;15.80;;;;;;;18.74;58.97;101060.20;109292;1251;58574;-59
2023/09/30 07:02:41;;;;;;;24.90;17.10;;;;;;;18.83;58.09;101060.95;109366;1252;63884;-57
2023/09/30 07:05:08;;;;;;;22.20;17.90;;;;;;;18.91;58.02;101060.64;109382;1251;61630;-59
2023/09/30 07:07:35;;;;;;;23.80;18.00;;;;;;;18.98;58.35;101060.80;109361;1252;64107;-60
2023/09/30 07:10:04;;;;;;;22.10;15.30;;;;;;;19.07;58.36;101058.63;109270;1251;58617;-61
2023/09/30 07:12:31;;;;;;;18.00;15.30;;;;;;;19.18;58.04;101061.60;109358;1251;59072;-59
2023/09/30 07:14:58;;;;;;;22.70;17.10;;;;;;;19.32;57.75;101060.83;107491;1253;65187;-61
2023/09/30 07:17:25;;;;;;;25.40;18.80;;;;;;;19.42;58.41;101057.11;105796;1251;61360;-60
2023/09/30 07:19:52;;;;;;;20.70;17.20;;;;;;;19.48;58.83;101054.98;105430;1251;64921;-60
2023/09/30 07:22:18;;;;;;;25.00;17.40;;;;;;;19.49;59.04;101056.45;105289;1251;60494;-57
2023/09/30 07:25:02;;;;;;;21.90;18.20;;;;;;;19.50;59.10;101055.67;105720;1251;60574;-58
2023/09/30 07:27:29;;;;;;;20.30;16.60;;;;;;;19.55;58.97;101056.59;105072;1251;473593;-58
2023/09/30 07:31:02;;;;;;;24.10;16.80;;;;;;;19.45;59.16;101057.81;102107;1296;600183;-56
2023/09/30 07:33:31;;;;;;;24.90;18.40;;;;;;;19.69;58.61;101056.30;104635;1267;59369;-57
2023/09/30 07:35:58;;;;;;;21.00;17.10;;;;;;;19.77;58.64;101053.70;104784;1271;59366;-60
2023/09/30 07:38:26;;;;;;;20.40;16.70;;;;;;;19.81;58.56;101052.39;104828;1265;63281;-58
2023/09/30 07:40:53;;;;;;;22.40;16.30;;;;;;;19.83;58.80;101052.83;104757;1261;60288;-57
2023/09/30 07:43:22;;;;;;;23.80;16.60;;;;;;;19.88;58.70;101051.23;104597;1263;253115;-56
2023/09/30 07:45:49;;;;;;;22.50;17.10;;;;;;;19.94;58.24;101049.71;104864;1257;59435;-56
2023/09/30 07:48:17;;;;;;;25.70;16.60;;;;;;;19.97;58.08;101047.91;104729;1263;59206;-57
2023/09/30 07:50:45;;;;;;;23.50;17.10;;;;;;;19.99;57.74;101043.52;104891;1264;63273;-57
2023/09/30 07:53:12;;;;;;;23.20;17.30;;;;;;;20.00;57.86;101043.00;104891;1260;61545;-54
2023/09/30 07:55:40;;;;;;;19.00;16.30;;;;;;;20.06;58.05;101043.59;104886;1260;64009;-53
2023/09/30 07:58:08;;;;;;;23.80;15.70;;;;;;;20.13;57.87;101041.37;104723;1263;59624;-55
2023/09/30 08:00:36;;;;;;;24.30;15.70;;;;;;;20.24;57.53;101040.70;104978;1264;59688;-56
2023/09/30 08:03:04;;;;;;;18.80;14.90;;;;;;;20.36;57.22;101040.08;105143;1260;64665;-56
2023/09/30 08:05:32;;;;;;;20.70;15.40;;;;;;;20.47;57.02;101037.43;105005;1262;61375;-55
2023/09/30 08:08:01;;;;;;;19.80;15.50;;;;;;;20.56;56.55;101036.93;105086;1257;64208;-56
2023/09/30 08:10:29;;;;;;;21.60;15.40;;;;;;;20.63;56.10;101031.98;105294;1257;59620;-56
2023/09/30 08:12:58;;;;;;;22.70;16.50;;;;;;;20.68;56.07;101032.64;105500;1257;59698;-57
2023/09/30 08:15:25;;;;;;;19.30;16.00;;;;;;;20.74;55.97;101035.11;105095;1262;64169;-54
2023/09/30 08:17:53;;;;;;;22.10;15.30;;;;;;;20.81;55.98;101034.59;105515;1261;60307;-56
2023/09/30 08:20:21;;;;;;;21.40;14.50;;;;;;;20.89;55.81;101031.88;105113;1257;63817;-54
2023/09/30 08:22:48;;;;;;;19.30;15.40;;;;;;;21.00;55.87;101029.95;104991;1257;59784;-54
2023/09/30 08:25:16;;;;;;;21.90;16.50;;;;;;;21.09;55.90;101029.44;105062;1259;59660;-54
2023/09/30 08:27:45;;;;;;;23.90;16.40;;;;;;;21.16;55.77;101029.11;105061;1264;64096;-48
2023/09/30 08:30:13;;;;;;;25.80;15.50;;;;;;;21.25;55.91;101028.63;105084;1261;61294;-49
2023/09/30 08:32:40;;;;;;;20.00;14.70;;;;;;;21.35;55.95;101029.13;105038;1263;63747;-49
2023/09/30 08:35:09;;;;;;;19.00;14.50;;;;;;;21.45;56.10;101030.07;105119;1262;59762;-47
2023/09/30 08:37:37;;;;;;;21.10;14.10;;;;;;;21.58;55.53;101028.41;105345;1257;59730;-48
2023/09/30 08:40:05;;;;;;;19.90;16.10;;;;;;;21.70;54.81;101028.63;105030;1263;64094;-49
2023/09/30 08:42:33;;;;;;;24.50;15.40;;;;;;;21.78;54.87;101026.65;104957;1263;60131;-49
2023/09/30 08:45:04;;;;;;;20.30;15.70;;;;;;;21.87;55.18;101019.30;105094;1263;63698;-48
2023/09/30 08:47:34;;;;;;;21.00;15.50;;;;;;;21.97;55.30;101016.13;105437;1260;59716;-50
2023/09/30 08:50:05;;;;;;;19.10;15.10;;;;;;;22.06;55.11;101015.48;105075;1260;59679;-52
2023/09/30 08:52:34;;;;;;;21.00;15.20;;;;;;;22.12;55.02;101012.77;106774;1257;62922;-47
2023/09/30 08:55:08;;;;;;;20.30;15.20;;;;;;;22.19;55.11;101012.69;105445;1254;60114;-56
2023/09/30 08:57:39;;;;;;;20.20;14.10;;;;;;;22.30;54.94;101006.42;105228;1254;63798;-53
2023/09/30 09:00:11;;;;;;;17.90;14.00;;;;;;;22.44;54.73;101003.42;105286;1254;60073;-56
2023/09/30 09:02:39;;;;;;;22.00;14.80;;;;;;;22.55;54.41;101000.59;105453;1254;59747;-54
2023/09/30 09:05:07;;;;;;;17.80;14.00;;;;;;;22.61;54.05;100997.63;105242;1254;64723;-54
2023/09/30 09:07:35;;;;;;;15.70;13.80;;;;;;;22.67;53.93;100995.70;105288;1254;60932;-54
2023/09/30 09:10:07;;;;;;;17.00;13.10;;;;;;;22.72;53.48;100995.27;105300;1259;62441;-58
2023/09/30 09:12:37;;;;;;;20.00;13.50;;;;;;;22.75;53.53;100994.35;105231;1258;59852;-54
2023/09/30 09:15:06;;;;;;;16.70;13.50;;;;;;;22.79;53.67;100992.18;105408;1259;59683;-56
2023/09/30 09:17:44;;;;;;;20.10;13.50;;;;;;;22.85;53.59;100986.16;105418;1254;62973;-54
2023/09/30 09:20:20;;;;;;;16.30;12.80;;;;;;;22.93;53.36;100986.39;105391;1260;60163;-54
2023/09/30 09:22:53;;;;;;;17.90;12.50;;;;;;;23.03;53.18;100981.10;105973;1254;63950;-55
2023/09/30 09:25:24;;;;;;;14.50;11.70;;;;;;;23.16;52.94;100978.38;105774;1259;59811;-54
2023/09/30 09:27:53;;;;;;;18.50;13.70;;;;;;;23.29;52.68;100975.14;105776;1254;61507;-54
2023/09/30 09:30:23;;;;;;;16.10;12.50;;;;;;;23.40;52.55;100973.95;105417;1257;64219;-55
2023/09/30 09:33:01;;;;;;;20.60;13.40;;;;;;;23.50;52.29;100974.38;105827;1254;61941;-56
2023/09/30 09:35:30;;;;;;;19.20;13.00;;;;;;;23.58;51.97;100971.75;105508;1258;70369;-57
2023/09/30 09:38:00;;;;;;;23.80;15.70;;;;;;;23.62;51.85;100971.55;106453;1259;59732;-56
2023/09/30 09:40:29;;;;;;;24.40;16.30;;;;;;;23.65;51.40;100969.50;105589;1254;59657;-57
2023/09/30 09:42:57;;;;;;;19.30;13.70;;;;;;;23.70;51.21;100972.73;106492;1254;64098;-59
2023/09/30 09:45:25;;;;;;;20.50;14.60;;;;;;;23.79;51.18;100965.36;105192;1254;61363;-56
2023/09/30 09:47:54;;;;;;;20.90;12.40;;;;;;;23.87;50.44;100961.42;105283;1254;63704;-55
2023/09/30 09:50:22;;;;;;;16.50;12.20;;;;;;;23.96;50.49;100960.48;105673;1257;59816;-56
2023/09/30 09:52:51;;;;;;;17.80;13.50;;;;;;;24.06;50.23;100956.94;106040;1253;59739;-57
2023/09/30 09:55:19;;;;;;;18.30;12.50;;;;;;;24.17;49.78;100955.85;105873;1254;64085;-57
2023/09/30 09:57:47;;;;;;;19.30;13.20;;;;;;;24.26;49.51;100955.20;105376;1253;61396;-58
2023/09/30 10:00:18;;;;;;;16.80;12.00;;;;;;;24.35;49.05;100954.41;106009;1254;63702;-57
2023/09/30 10:02:46;;;;;;;15.50;11.00;;;;;;;24.43;48.61;100949.98;106056;1254;60524;-59
2023/09/30 10:05:15;;;;;;;12.60;10.90;;;;;;;24.47;48.00;100948.99;105276;1259;59660;-57
2023/09/30 10:08:04;;;;;;;13.80;10.80;;;;;;;24.51;47.17;100945.16;105373;1257;64215;-57
2023/09/30 10:10:32;;;;;;;13.60;10.70;;;;;;;24.56;46.72;100940.69;106489;1253;61923;-60
2023/09/30 10:12:59;;;;;;;11.70;9.70;;;;;;;24.63;45.44;100939.14;105291;1259;62590;-59
2023/09/30 10:15:27;;;;;;;12.60;9.90;;;;;;;24.70;44.13;100937.27;105274;1259;59752;-59
2023/09/30 10:18:13;;;;;;;21.80;10.90;;;;;;;24.80;44.10;100935.34;106550;1254;61183;-58
2023/09/30 10:20:48;;;;;;;19.60;11.30;;;;;;;24.94;43.78;100932.02;105334;1254;62860;-57
2023/09/30 10:23:16;;;;;;;13.90;10.50;;;;;;;25.07;42.76;100925.99;106107;1254;61499;-57
2023/09/30 10:25:47;;;;;;;16.00;10.80;;;;;;;25.13;41.55;100926.54;105163;1254;62672;-58
2023/09/30 10:28:38;;;;;;;12.30;9.90;;;;;;;25.16;40.78;100922.76;105987;1254;59518;-56
2023/09/30 10:31:19;;;;;;;13.40;10.70;;;;;;;25.17;39.78;100917.59;105259;1254;59638;-57
2023/09/30 10:34:02;;;;;;;14.00;10.00;;;;;;;25.20;39.14;100917.91;106048;1254;64579;-55
2023/09/30 10:36:34;;;;;;;15.20;10.20;;;;;;;25.25;38.67;100917.48;105439;1254;61849;-56
2023/09/30 10:39:02;;;;;;;12.30;10.40;;;;;;;25.29;39.10;100912.25;105788;1254;63730;-59
2023/09/30 10:41:53;;;;;;;14.30;10.20;;;;;;;25.32;39.28;100911.25;105665;1259;59680;-56
2023/09/30 10:44:27;;;;;;;14.20;11.40;;;;;;;25.33;39.67;100909.66;105741;1254;59576;-59
2023/09/30 10:46:57;;;;;;;14.00;11.20;;;;;;;25.32;40.56;100908.77;105242;1254;62820;-58
2023/09/30 10:49:25;;;;;;;17.60;10.30;;;;;;;25.31;40.88;100909.63;105776;1254;61435;-58
2023/09/30 10:51:56;;;;;;;12.40;10.30;;;;;;;25.31;39.81;100907.52;105296;1257;62494;-59
2023/09/30 10:54:25;;;;;;;12.50;10.10;;;;;;;25.34;39.04;100903.83;105686;1257;59748;-58
2023/09/30 10:56:53;;;;;;;17.40;10.10;;;;;;;25.38;39.41;100895.73;105705;1257;59806;-61
2023/09/30 10:59:27;;;;;;;13.30;10.20;;;;;;;25.37;39.14;100894.45;105908;1257;64103;-62
2023/09/30 11:01:55;;;;;;;18.90;11.40;;;;;;;25.36;39.47;100897.16;105057;1256;60153;-58
2023/09/30 11:04:22;;;;;;;12.40;10.10;;;;;;;25.34;39.61;100893.91;104768;1259;64218;-63
2023/09/30 11:06:51;;;;;;;16.50;10.10;;;;;;;25.32;39.35;100890.28;104856;1254;59828;-62
2023/09/30 11:09:21;;;;;;;12.20;10.90;;;;;;;25.30;39.08;100885.06;105063;1256;59551;-61